createdAt,value
2023-05-22T00:00:35.693Z,84.33
2023-05-22T00:03:37.723Z,84.20
2023-05-22T00:06:43.026Z,84.26
2023-05-22T00:09:44.858Z,84.19
2023-05-22T00:12:46.589Z,84.59
2023-05-22T00:15:49.125Z,84.49
2023-05-22T00:18:50.969Z,84.88
2023-05-22T00:21:54.307Z,84.83
2023-05-22T00:24:56.184Z,87.07
2023-05-22T00:27:57.938Z,86.06
2023-05-22T00:30:59.684Z,86.41
2023-05-22T00:34:01.592Z,85.70
2023-05-22T00:37:03.471Z,85.49
2023-05-22T00:40:06.196Z,85.12
2023-05-22T00:43:09.424Z,85.09
2023-05-22T00:46:12.642Z,85.38
2023-05-22T00:49:14.556Z,85.10
2023-05-22T00:52:17.768Z,84.88
2023-05-22T00:55:19.685Z,84.69
2023-05-22T00:58:21.908Z,84.76
2023-05-22T01:01:26.417Z,84.91
2023-05-22T01:04:28.783Z,85.31
2023-05-22T01:07:30.835Z,85.10
2023-05-22T01:10:33.935Z,85.40
2023-05-22T01:13:55.453Z,85.42
2023-05-22T01:17:09.330Z,85.08
2023-05-22T01:20:30.136Z,85.28
2023-05-22T01:24:04.542Z,85.42
2023-05-22T01:27:42.989Z,86.17
2023-05-22T01:30:50.884Z,86.14
2023-05-22T01:33:55.194Z,85.63
2023-05-22T01:36:57.494Z,85.75
2023-05-22T01:39:59.490Z,85.72
2023-05-22T01:43:01.384Z,85.85
2023-05-22T01:46:03.558Z,85.91
2023-05-22T01:49:05.922Z,85.59
2023-05-22T01:52:38.308Z,85.37
2023-05-22T01:55:45.377Z,85.26
2023-05-22T01:58:54.089Z,85.28
2023-05-22T02:01:55.926Z,85.29
2023-05-22T02:05:00.158Z,85.38
2023-05-22T02:08:02.352Z,85.46
2023-05-22T02:11:05.400Z,85.32
2023-05-22T02:14:08.993Z,85.04
2023-05-22T02:17:10.785Z,85.09
2023-05-22T02:20:15.394Z,85.09
2023-05-22T02:23:17.252Z,85.22
2023-05-22T02:26:19.333Z,85.11
2023-05-22T02:29:21.147Z,85.05
2023-05-22T02:32:22.907Z,85.45
2023-05-22T02:35:24.826Z,85.29
2023-05-22T02:38:26.592Z,85.25
2023-05-22T02:41:28.526Z,85.00
2023-05-22T02:44:30.416Z,84.96
2023-05-22T02:47:32.255Z,84.58
2023-05-22T02:50:34.288Z,84.72
2023-05-22T02:53:40.122Z,85.07
2023-05-22T02:56:43.283Z,84.87
2023-05-22T02:59:45.394Z,84.49
2023-05-22T03:02:47.321Z,84.19
2023-05-22T03:05:50.056Z,84.40
2023-05-22T03:08:53.146Z,84.09
2023-05-22T03:11:54.955Z,83.98
2023-05-22T03:14:56.948Z,84.16
2023-05-22T03:17:58.849Z,83.91
2023-05-22T03:21:00.681Z,83.59
2023-05-22T03:24:03.021Z,83.17
2023-05-22T03:27:05.067Z,81.77
2023-05-22T03:30:08.184Z,79.68
2023-05-22T03:33:10.403Z,78.21
2023-05-22T03:36:12.457Z,76.93
2023-05-22T03:39:14.263Z,74.25
2023-05-22T03:42:16.454Z,72.34
2023-05-22T03:45:18.526Z,68.63
2023-05-22T03:48:21.018Z,67.79
2023-05-22T03:51:22.880Z,66.07
2023-05-22T03:54:24.904Z,63.89
2023-05-22T03:57:26.683Z,61.04
2023-05-22T04:00:28.570Z,58.83
2023-05-22T04:03:30.671Z,57.29
2023-05-22T04:06:33.108Z,54.14
2023-05-22T04:09:36.198Z,52.96
2023-05-22T04:12:38.056Z,51.98
2023-05-22T04:15:41.703Z,50.25
2023-05-22T04:18:43.486Z,48.78
2023-05-22T04:21:45.390Z,47.35
2023-05-22T04:24:49.265Z,46.49
2023-05-22T04:27:51.237Z,47.44
2023-05-22T04:30:54.554Z,46.63
2023-05-22T04:33:56.575Z,44.99
2023-05-22T04:37:00.112Z,42.28
2023-05-22T04:40:07.479Z,44.27
2023-05-22T04:43:09.301Z,48.80
2023-05-22T04:46:11.119Z,50.31
2023-05-22T04:49:13.551Z,51.85
2023-05-22T04:52:15.397Z,52.24
2023-05-22T04:55:17.402Z,54.64
2023-05-22T04:58:26.214Z,56.25
2023-05-22T05:01:29.096Z,57.92
2023-05-22T05:04:32.509Z,59.91
2023-05-22T05:07:37.554Z,60.29
2023-05-22T05:10:39.605Z,60.78
2023-05-22T05:13:42.977Z,61.05
2023-05-22T05:16:44.912Z,60.61
2023-05-22T05:19:46.718Z,61.13
2023-05-22T05:22:48.596Z,61.15
2023-05-22T05:25:50.401Z,61.47
2023-05-22T05:28:52.187Z,61.84
2023-05-22T05:31:54.077Z,61.79
2023-05-22T05:34:56.481Z,61.42
2023-05-22T05:37:58.355Z,61.13
2023-05-22T05:41:00.313Z,61.26
2023-05-22T05:44:02.131Z,61.16
2023-05-22T05:47:04.118Z,61.09
2023-05-22T05:50:07.298Z,60.72
2023-05-22T05:53:09.339Z,61.40
2023-05-22T05:56:11.145Z,60.09
2023-05-22T05:59:13.255Z,59.46
2023-05-22T06:02:15.057Z,58.84
2023-05-22T06:05:19.275Z,59.03
2023-05-22T06:08:21.938Z,59.27
2023-05-22T06:11:24.329Z,59.65
2023-05-22T06:14:26.095Z,61.83
2023-05-22T06:17:28.006Z,62.11
2023-05-22T06:20:29.910Z,61.40
2023-05-22T06:23:32.393Z,57.05
2023-05-22T06:26:34.220Z,57.16
2023-05-22T06:29:36.338Z,56.62
2023-05-22T06:32:38.296Z,55.01
2023-05-22T06:35:40.256Z,54.95
2023-05-22T06:38:41.996Z,54.78
2023-05-22T06:41:43.854Z,55.60
2023-05-22T06:44:45.756Z,54.75
2023-05-22T06:47:47.598Z,55.90
2023-05-22T06:50:49.438Z,55.03
2023-05-22T06:53:51.632Z,52.66
2023-05-22T06:56:53.595Z,53.83
2023-05-22T06:59:55.355Z,52.59
2023-05-22T07:02:57.167Z,51.56
2023-05-22T07:05:59.554Z,50.36
2023-05-22T07:09:01.549Z,46.62
2023-05-22T07:12:03.476Z,49.25
2023-05-22T07:15:05.664Z,47.68
2023-05-22T07:18:09.363Z,44.15
2023-05-22T07:21:11.598Z,43.65
2023-05-22T07:24:13.436Z,43.90
2023-05-22T07:27:15.360Z,46.22
2023-05-22T07:30:17.100Z,45.71
2023-05-22T07:33:18.828Z,41.25
2023-05-22T07:36:21.054Z,43.85
2023-05-22T07:39:22.856Z,44.49
2023-05-22T07:42:26.099Z,43.18
2023-05-22T07:45:27.926Z,44.07
2023-05-22T07:48:29.810Z,42.66
2023-05-22T07:51:32.169Z,42.83
2023-05-22T07:54:33.961Z,42.56
2023-05-22T07:57:36.207Z,44.33
2023-05-22T08:00:38.058Z,44.59
2023-05-22T08:03:40.282Z,43.95
2023-05-22T08:06:43.890Z,43.99
2023-05-22T08:09:46.805Z,41.48
2023-05-22T08:12:48.619Z,43.44
2023-05-22T08:15:50.743Z,43.61
2023-05-22T08:19:02.736Z,41.11
2023-05-22T08:22:04.645Z,41.21
2023-05-22T08:25:06.656Z,40.82
2023-05-22T08:28:08.551Z,40.76
2023-05-22T08:31:13.076Z,39.37
2023-05-22T08:34:15.166Z,39.05
2023-05-22T08:37:16.987Z,39.59
2023-05-22T08:40:20.408Z,39.91
2023-05-22T08:43:22.486Z,39.76
2023-05-22T08:46:28.236Z,38.31
2023-05-22T08:49:30.739Z,38.18
2023-05-22T08:52:51.233Z,36.58
2023-05-22T08:55:53.812Z,36.23
2023-05-22T08:58:55.716Z,35.21
2023-05-22T09:01:58.244Z,34.53
2023-05-22T09:05:05.311Z,36.92
2023-05-22T09:08:19.132Z,35.82
2023-05-22T09:11:22.716Z,33.79
2023-05-22T09:14:25.469Z,35.64
2023-05-22T09:17:27.497Z,34.85
2023-05-22T09:20:29.575Z,34.81
2023-05-22T09:23:32.099Z,31.99
2023-05-22T09:26:34.670Z,32.40
2023-05-22T09:29:50.943Z,31.05
2023-05-22T09:32:53.290Z,34.32
2023-05-22T09:35:55.321Z,33.16
2023-05-22T09:38:58.133Z,33.56
2023-05-22T09:42:01.527Z,34.34
2023-05-22T09:45:07.186Z,35.35
2023-05-22T09:48:10.181Z,35.48
2023-05-22T09:51:13.067Z,36.96
2023-05-22T09:54:16.198Z,37.42
2023-05-22T09:57:19.669Z,36.09
2023-05-22T10:00:24.409Z,35.71
2023-05-22T10:03:27.170Z,35.52
2023-05-22T10:06:31.572Z,34.82
2023-05-22T10:09:36.508Z,33.64
2023-05-22T10:13:07.968Z,35.07
2023-05-22T10:16:12.091Z,35.47
2023-05-22T10:19:14.570Z,33.27
2023-05-22T10:22:20.877Z,34.38
2023-05-22T10:25:23.269Z,34.17
2023-05-22T10:28:29.366Z,34.74
2023-05-22T10:32:13.402Z,34.71
2023-05-22T10:35:21.132Z,32.83
2023-05-22T10:38:28.298Z,34.40
2023-05-22T10:41:31.103Z,36.48
2023-05-22T10:44:33.469Z,35.46
2023-05-22T10:47:35.731Z,35.17
2023-05-22T10:50:38.499Z,33.57
2023-05-22T10:53:42.907Z,34.29
2023-05-22T10:56:45.574Z,33.92
2023-05-22T10:59:47.882Z,33.42
2023-05-22T11:02:49.986Z,33.33
2023-05-22T11:05:53.930Z,33.42
2023-05-22T11:08:56.501Z,34.48
2023-05-22T11:12:17.825Z,32.96
2023-05-22T11:15:30.683Z,32.98
2023-05-22T11:18:32.551Z,34.28
2023-05-22T11:21:47.688Z,32.50
2023-05-22T11:24:49.573Z,33.42
2023-05-22T11:27:51.410Z,33.99
2023-05-22T11:30:54.147Z,34.65
2023-05-22T11:33:56.146Z,33.07
2023-05-22T11:37:01.689Z,34.98
2023-05-22T11:40:06.085Z,34.57
2023-05-22T11:43:08.136Z,34.76
2023-05-22T11:46:11.215Z,34.83
2023-05-22T11:49:13.297Z,35.76
2023-05-22T11:52:19.060Z,36.89
2023-05-22T11:55:22.688Z,37.72
2023-05-22T11:58:28.627Z,38.38
2023-05-22T12:01:30.917Z,37.65
2023-05-22T12:04:33.267Z,37.17
2023-05-22T12:07:35.148Z,37.62
2023-05-22T12:10:37.202Z,37.37
2023-05-22T12:13:39.382Z,37.54
2023-05-22T12:16:41.357Z,37.40
2023-05-22T12:19:44.167Z,37.52
2023-05-22T12:22:47.122Z,33.58
2023-05-22T12:25:57.875Z,35.65
2023-05-22T12:28:59.802Z,35.02
2023-05-22T12:32:03.304Z,33.93
2023-05-22T12:35:05.676Z,35.39
2023-05-22T12:38:07.676Z,36.27
2023-05-22T12:41:09.430Z,36.14
2023-05-22T12:44:12.077Z,36.22
2023-05-22T12:47:13.911Z,36.10
2023-05-22T12:50:22.743Z,35.39
2023-05-22T12:57:36.555Z,34.73
2023-05-22T13:00:38.593Z,34.81
2023-05-22T13:03:40.583Z,34.24
2023-05-22T13:06:42.380Z,33.52
2023-05-22T13:09:44.236Z,34.33
2023-05-22T13:12:48.567Z,34.37
2023-05-22T13:15:50.533Z,33.77
2023-05-22T13:18:52.448Z,33.46
2023-05-22T13:21:54.333Z,34.63
2023-05-22T13:24:56.171Z,34.51
2023-05-22T13:27:59.285Z,34.86
2023-05-22T13:31:01.219Z,33.83
2023-05-22T13:34:03.326Z,34.88
2023-05-22T13:37:05.343Z,34.41
2023-05-22T13:40:12.250Z,33.99
2023-05-22T13:43:14.811Z,35.20
2023-05-22T13:46:18.147Z,34.52
2023-05-22T13:49:19.984Z,35.41
2023-05-22T13:52:22.152Z,35.24
2023-05-22T13:55:24.013Z,35.62
2023-05-22T13:58:25.928Z,35.15
2023-05-22T14:01:27.841Z,35.80
2023-05-22T14:04:29.810Z,35.91
2023-05-22T14:07:31.632Z,35.31
2023-05-22T14:10:34.560Z,35.74
2023-05-22T14:13:36.410Z,35.47
2023-05-22T14:16:39.025Z,35.54
2023-05-22T14:19:41.374Z,35.54
2023-05-22T14:22:56.377Z,35.11
2023-05-22T14:25:59.910Z,35.42
2023-05-22T14:29:01.795Z,35.71
2023-05-22T14:32:04.733Z,35.67
2023-05-22T14:35:06.755Z,35.56
2023-05-22T14:38:08.597Z,35.98
2023-05-22T14:41:10.709Z,35.45
2023-05-22T14:44:12.563Z,35.59
2023-05-22T14:47:14.386Z,35.28
2023-05-22T14:50:19.768Z,35.40
2023-05-22T14:53:23.274Z,36.28
2023-05-22T14:56:26.505Z,36.06
2023-05-22T14:59:28.410Z,37.02
2023-05-22T15:02:30.300Z,36.55
2023-05-22T15:05:32.151Z,37.00
2023-05-22T15:08:34.245Z,37.79
2023-05-22T15:11:36.649Z,37.63
2023-05-22T15:14:38.577Z,36.30
2023-05-22T15:17:42.636Z,38.74
2023-05-22T15:20:45.096Z,38.47
2023-05-22T15:23:47.021Z,39.25
2023-05-22T15:26:48.858Z,40.20
2023-05-22T15:29:50.759Z,40.55
2023-05-22T15:32:52.604Z,40.66
2023-05-22T15:35:54.538Z,41.26
2023-05-22T15:38:56.380Z,41.88
2023-05-22T15:42:05.815Z,41.59
2023-05-22T15:45:13.393Z,41.36
2023-05-22T15:48:18.245Z,41.29
2023-05-22T15:51:20.129Z,41.77
2023-05-22T15:54:21.951Z,41.77
2023-05-22T15:57:23.856Z,41.04
2023-05-22T16:00:26.926Z,41.15
2023-05-22T16:03:28.920Z,41.29
2023-05-22T16:06:30.752Z,41.27
2023-05-22T16:09:32.969Z,41.11
2023-05-22T16:12:34.935Z,41.48
2023-05-22T16:15:39.687Z,43.23
2023-05-22T16:18:41.776Z,45.34
2023-05-22T16:21:44.242Z,46.86
2023-05-22T16:24:46.336Z,48.50
2023-05-22T16:27:48.163Z,48.89
2023-05-22T16:30:49.910Z,49.97
2023-05-22T16:33:53.033Z,50.17
2023-05-22T16:36:54.978Z,50.92
2023-05-22T16:39:56.777Z,51.44
2023-05-22T16:42:58.654Z,54.06
2023-05-22T16:46:00.583Z,53.93
2023-05-22T16:49:02.487Z,54.02
2023-05-22T16:52:04.418Z,60.14
2023-05-22T16:55:07.029Z,57.06
2023-05-22T16:58:13.443Z,55.58
2023-05-22T17:01:15.540Z,55.28
2023-05-22T17:04:20.168Z,54.50
2023-05-22T17:07:24.882Z,53.61
2023-05-22T17:10:30.908Z,51.99
2023-05-22T17:13:33.244Z,53.63
2023-05-22T17:16:35.175Z,55.56
2023-05-22T17:19:37.303Z,57.48
2023-05-22T17:22:39.113Z,56.91
2023-05-22T17:25:41.826Z,58.95
2023-05-22T17:28:44.615Z,58.68
2023-05-22T17:31:46.585Z,58.58
2023-05-22T17:34:49.267Z,58.14
2023-05-22T17:37:51.221Z,59.27
2023-05-22T17:40:53.678Z,59.35
2023-05-22T17:43:57.153Z,59.70
2023-05-22T17:46:59.219Z,60.42
2023-05-22T17:50:01.078Z,60.90
2023-05-22T17:53:03.272Z,60.76
2023-05-22T17:56:05.764Z,62.71
2023-05-22T17:59:08.122Z,64.73
2023-05-22T18:02:09.985Z,65.40
2023-05-22T18:05:12.716Z,75.24
2023-05-22T18:08:15.955Z,72.09
2023-05-22T18:11:18.124Z,70.14
2023-05-22T18:14:20.334Z,69.28
2023-05-22T18:17:22.887Z,68.17
2023-05-22T18:20:24.865Z,67.26
2023-05-22T18:23:26.931Z,67.03
2023-05-22T18:26:29.035Z,66.68
2023-05-22T18:29:30.771Z,66.76
2023-05-22T18:32:32.754Z,66.76
2023-05-22T18:35:34.910Z,66.67
2023-05-22T18:38:36.951Z,66.45
2023-05-22T18:41:38.877Z,66.57
2023-05-22T18:44:41.107Z,66.49
2023-05-22T18:47:42.932Z,66.46
2023-05-22T18:50:44.917Z,66.49
2023-05-22T18:53:47.066Z,69.10
2023-05-22T18:56:48.989Z,70.50
2023-05-22T18:59:51.039Z,71.68
2023-05-22T19:02:52.871Z,74.30
2023-05-22T19:05:55.352Z,75.73
2023-05-22T19:08:57.209Z,77.10
2023-05-22T19:11:59.104Z,82.36
2023-05-22T19:15:00.940Z,82.93
2023-05-22T19:18:02.847Z,86.73
2023-05-22T19:21:04.724Z,85.19
2023-05-22T19:24:06.922Z,84.99
2023-05-22T19:27:09.010Z,84.15
2023-05-22T19:30:11.430Z,82.96
2023-05-22T19:33:14.568Z,82.29
2023-05-22T19:36:16.620Z,81.83
2023-05-22T19:39:18.378Z,81.30
2023-05-22T19:42:20.203Z,81.00
2023-05-22T19:45:22.050Z,81.01
2023-05-22T19:48:23.908Z,80.97
2023-05-22T19:51:25.819Z,80.85
2023-05-22T19:54:27.608Z,81.09
2023-05-22T19:57:31.130Z,81.04
2023-05-22T20:00:33.488Z,81.06
2023-05-22T20:03:35.681Z,81.24
2023-05-22T20:06:37.735Z,81.71
2023-05-22T20:09:39.503Z,82.17
2023-05-22T20:12:41.311Z,82.47
2023-05-22T20:15:43.154Z,82.95
2023-05-22T20:18:44.913Z,83.03
2023-05-22T20:21:49.050Z,83.29
2023-05-22T20:24:52.501Z,83.54
2023-05-22T20:27:54.264Z,83.75
2023-05-22T20:30:56.075Z,84.20
2023-05-22T20:33:59.127Z,84.54
2023-05-22T20:37:02.441Z,84.82
2023-05-22T20:40:05.490Z,84.89
2023-05-22T20:43:07.632Z,85.25
2023-05-22T20:46:10.201Z,85.89
2023-05-22T20:49:12.456Z,85.71
2023-05-22T20:52:14.317Z,85.64
2023-05-22T20:55:16.165Z,85.39
2023-05-22T20:58:19.849Z,85.06
2023-05-22T21:01:22.678Z,84.64
2023-05-22T21:04:25.936Z,84.72
2023-05-22T21:07:27.767Z,87.98
2023-05-22T21:10:29.616Z,91.68
2023-05-22T21:13:31.349Z,91.25
2023-05-22T21:16:33.216Z,91.55
2023-05-22T21:19:35.161Z,90.93
2023-05-22T21:22:37.048Z,93.21
2023-05-22T21:25:38.949Z,92.78
2023-05-22T21:28:41.925Z,93.61
2023-05-22T21:31:43.878Z,94.29
2023-05-22T21:34:46.715Z,93.26
2023-05-22T21:37:48.445Z,92.32
2023-05-22T21:40:50.372Z,91.37
2023-05-22T21:43:52.134Z,90.89
2023-05-22T21:46:54.059Z,90.75
2023-05-22T21:49:55.833Z,90.28
2023-05-22T21:52:57.610Z,90.28
2023-05-22T21:55:59.496Z,90.73
2023-05-22T21:59:01.238Z,92.17
2023-05-22T22:02:03.100Z,91.33
2023-05-22T22:05:05.284Z,91.19
2023-05-22T22:08:07.160Z,91.45
2023-05-22T22:11:08.973Z,90.66
2023-05-22T22:14:10.769Z,90.40
2023-05-22T22:17:12.509Z,90.33
2023-05-22T22:20:14.331Z,90.40
2023-05-22T22:23:16.234Z,90.12
2023-05-22T22:26:18.083Z,90.31
2023-05-22T22:29:19.891Z,90.37
2023-05-22T22:32:21.684Z,90.66
2023-05-22T22:35:23.527Z,91.00
2023-05-22T22:38:25.383Z,92.63
2023-05-22T22:41:27.585Z,94.28
2023-05-22T22:44:29.854Z,92.95
2023-05-22T22:47:31.699Z,93.76
2023-05-22T22:50:33.501Z,94.44
2023-05-22T22:53:36.352Z,94.61
2023-05-22T22:56:38.278Z,94.24
2023-05-22T22:59:40.285Z,93.94
2023-05-22T23:02:42.217Z,93.79
2023-05-22T23:05:44.334Z,94.26
2023-05-22T23:08:46.315Z,94.08
2023-05-22T23:11:48.178Z,94.85
2023-05-22T23:14:50.551Z,95.55
2023-05-22T23:17:52.431Z,94.81
2023-05-22T23:20:54.226Z,94.64
2023-05-22T23:23:56.181Z,95.40
2023-05-22T23:26:57.994Z,97.00
2023-05-22T23:29:59.841Z,96.98
2023-05-22T23:33:02.645Z,97.85
2023-05-22T23:36:04.519Z,96.29
2023-05-22T23:39:06.424Z,97.41
2023-05-22T23:42:09.879Z,98.20
2023-05-22T23:45:11.916Z,98.49
2023-05-22T23:48:13.868Z,97.86
2023-05-22T23:51:16.932Z,97.26
2023-05-22T23:54:18.802Z,96.56
2023-05-22T23:57:20.722Z,96.39
